createdAt,value
2023-10-03T00:01:57.173Z,38.03
2023-10-03T00:04:25.232Z,31.92
2023-10-03T00:06:51.859Z,33.87
2023-10-03T00:09:18.436Z,31.67
2023-10-03T00:11:45.221Z,34.15
2023-10-03T00:14:11.893Z,31.80
2023-10-03T00:16:38.618Z,37.78
2023-10-03T00:19:05.406Z,35.80
2023-10-03T00:21:33.489Z,30.73
2023-10-03T00:24:01.970Z,37.88
2023-10-03T00:26:29.040Z,37.88
2023-10-03T00:28:56.269Z,32.67
2023-10-03T00:31:22.914Z,31.52
2023-10-03T00:33:49.701Z,34.92
2023-10-03T00:36:16.958Z,27.38
2023-10-03T00:38:45.144Z,43.83
2023-10-03T00:41:11.756Z,39.53
2023-10-03T00:43:38.441Z,36.90
2023-10-03T00:46:05.033Z,35.15
2023-10-03T00:48:31.677Z,39.92
2023-10-03T00:50:58.701Z,42.35
2023-10-03T00:53:25.649Z,36.58
2023-10-03T00:55:54.755Z,42.70
2023-10-03T00:58:21.322Z,38.28
2023-10-03T01:00:49.353Z,46.03
2023-10-03T01:03:26.385Z,40.22
2023-10-03T01:05:53.190Z,38.97
2023-10-03T01:08:19.823Z,38.17
2023-10-03T01:10:46.481Z,37.65
2023-10-03T01:13:14.396Z,37.25
2023-10-03T01:15:41.207Z,42.58
2023-10-03T01:18:07.868Z,35.45
2023-10-03T01:20:34.544Z,46.47
2023-10-03T01:23:06.132Z,37.35
2023-10-03T01:25:32.948Z,34.50
2023-10-03T01:27:59.550Z,38.28
2023-10-03T01:30:26.231Z,37.17
2023-10-03T01:32:56.585Z,34.05
2023-10-03T01:35:23.368Z,34.75
2023-10-03T01:37:50.333Z,31.45
2023-10-03T01:40:18.288Z,33.95
2023-10-03T01:42:46.148Z,32.40
2023-10-03T01:45:14.165Z,35.35
2023-10-03T01:47:41.009Z,30.88
2023-10-03T01:50:08.263Z,34.00
2023-10-03T01:52:34.924Z,35.90
2023-10-03T01:55:01.537Z,34.83
2023-10-03T01:57:29.851Z,31.80
2023-10-03T01:59:56.615Z,29.07
2023-10-03T02:02:23.258Z,33.30
2023-10-03T02:04:49.897Z,35.53
2023-10-03T02:07:16.504Z,30.92
2023-10-03T02:09:43.112Z,27.42
2023-10-03T02:12:09.718Z,28.60
2023-10-03T02:14:37.879Z,28.05
2023-10-03T02:17:05.057Z,26.75
2023-10-03T02:19:31.617Z,24.52
2023-10-03T02:21:58.293Z,28.70
2023-10-03T02:24:24.894Z,31.92
2023-10-03T02:26:51.557Z,25.00
2023-10-03T02:29:18.332Z,28.45
2023-10-03T02:31:46.481Z,28.40
2023-10-03T02:34:14.850Z,26.48
2023-10-03T02:36:41.480Z,32.28
2023-10-03T02:39:08.886Z,48.90
2023-10-03T02:41:35.542Z,26.13
2023-10-03T02:44:02.195Z,29.65
2023-10-03T02:46:29.452Z,27.70
2023-10-03T02:48:57.473Z,25.55
2023-10-03T02:51:24.277Z,20.97
2023-10-03T02:53:50.909Z,27.17
2023-10-03T02:56:17.613Z,26.08
2023-10-03T02:58:44.757Z,32.42
2023-10-03T03:01:12.247Z,31.88
2023-10-03T03:03:38.974Z,21.85
2023-10-03T03:06:13.471Z,24.45
2023-10-03T03:08:40.831Z,24.00
2023-10-03T03:11:07.889Z,24.50
2023-10-03T03:13:35.061Z,28.52
2023-10-03T03:16:02.345Z,22.73
2023-10-03T03:18:30.208Z,21.90
2023-10-03T03:20:57.025Z,29.88
2023-10-03T03:23:28.119Z,23.92
2023-10-03T03:25:54.983Z,27.08
2023-10-03T03:28:22.185Z,23.73
2023-10-03T03:30:48.957Z,26.23
2023-10-03T03:33:16.420Z,20.85
2023-10-03T03:35:43.091Z,23.02
2023-10-03T03:38:09.721Z,17.27
2023-10-03T03:40:37.716Z,26.33
2023-10-03T03:43:05.428Z,34.58
2023-10-03T03:45:32.224Z,16.67
2023-10-03T03:47:58.993Z,23.90
2023-10-03T03:50:25.751Z,18.92
2023-10-03T03:52:52.306Z,23.23
2023-10-03T03:55:19.004Z,21.10
2023-10-03T03:57:46.957Z,22.63
2023-10-03T04:00:14.372Z,20.35
2023-10-03T04:02:41.154Z,27.73
2023-10-03T04:05:08.252Z,26.42
2023-10-03T04:07:34.992Z,42.38
2023-10-03T04:10:02.502Z,23.13
2023-10-03T04:12:29.380Z,26.23
2023-10-03T04:14:57.377Z,29.23
2023-10-03T04:17:24.145Z,19.10
2023-10-03T04:19:50.749Z,25.77
2023-10-03T04:22:17.338Z,23.67
2023-10-03T04:24:43.938Z,18.67
2023-10-03T04:27:10.536Z,25.85
2023-10-03T04:29:37.133Z,23.05
2023-10-03T04:32:05.148Z,26.55
2023-10-03T04:34:31.693Z,19.85
2023-10-03T04:36:58.316Z,22.92
2023-10-03T04:39:25.040Z,21.17
2023-10-03T04:41:51.609Z,18.05
2023-10-03T04:44:18.446Z,24.65
2023-10-03T04:46:45.192Z,24.05
2023-10-03T04:49:13.128Z,23.25
2023-10-03T04:51:39.708Z,24.90
2023-10-03T04:54:06.649Z,24.13
2023-10-03T04:56:33.250Z,24.77
2023-10-03T04:58:59.925Z,28.33
2023-10-03T05:01:27.382Z,15.98
2023-10-03T05:03:54.179Z,22.63
2023-10-03T05:06:22.236Z,35.47
2023-10-03T05:08:48.855Z,24.48
2023-10-03T05:11:15.412Z,23.42
2023-10-03T05:13:42.029Z,23.20
2023-10-03T05:16:08.609Z,18.23
2023-10-03T05:18:35.250Z,33.03
2023-10-03T05:21:01.915Z,21.48
2023-10-03T05:23:30.188Z,28.98
2023-10-03T05:25:56.740Z,21.92
2023-10-03T05:28:25.104Z,28.30
2023-10-03T05:30:51.968Z,24.13
2023-10-03T05:33:18.616Z,21.05
2023-10-03T05:35:46.856Z,21.63
2023-10-03T05:38:13.443Z,23.95
2023-10-03T05:40:41.549Z,16.40
2023-10-03T05:43:08.408Z,18.83
2023-10-03T05:45:35.793Z,21.73
2023-10-03T05:48:03.199Z,18.25
2023-10-03T05:50:29.833Z,25.42
2023-10-03T05:52:56.401Z,21.70
2023-10-03T05:55:22.952Z,19.77
2023-10-03T05:57:50.895Z,18.05
2023-10-03T06:00:17.578Z,25.83
2023-10-03T06:02:44.518Z,27.65
2023-10-03T06:05:11.381Z,24.27
2023-10-03T06:07:38.763Z,25.95
2023-10-03T06:10:05.813Z,26.23
2023-10-03T06:12:32.505Z,18.90
2023-10-03T06:15:00.727Z,30.98
2023-10-03T06:17:27.360Z,17.35
2023-10-03T06:19:54.166Z,19.08
2023-10-03T06:22:20.728Z,22.63
2023-10-03T06:24:47.327Z,19.40
2023-10-03T06:27:13.925Z,25.15
2023-10-03T06:29:40.571Z,25.85
2023-10-03T06:32:08.838Z,29.10
2023-10-03T06:34:35.531Z,27.98
2023-10-03T06:37:02.184Z,22.98
2023-10-03T06:39:28.753Z,24.77
2023-10-03T06:41:55.434Z,21.38
2023-10-03T06:44:22.964Z,19.65
2023-10-03T06:46:49.599Z,20.73
2023-10-03T06:49:17.663Z,22.23
2023-10-03T06:51:44.229Z,22.50
2023-10-03T06:54:10.842Z,26.77
2023-10-03T06:56:37.424Z,23.70
2023-10-03T06:59:04.216Z,20.02
2023-10-03T07:01:31.148Z,15.60
2023-10-03T07:03:58.031Z,18.92
2023-10-03T07:06:26.078Z,21.30
2023-10-03T07:08:52.718Z,17.02
2023-10-03T07:11:19.364Z,25.40
2023-10-03T07:13:45.960Z,19.58
2023-10-03T07:16:12.515Z,22.27
2023-10-03T07:18:39.557Z,15.70
2023-10-03T07:21:06.343Z,18.23
2023-10-03T07:23:38.058Z,22.95
2023-10-03T07:26:05.736Z,14.38
2023-10-03T07:28:33.245Z,18.75
2023-10-03T07:30:59.981Z,17.73
2023-10-03T07:33:26.754Z,16.38
2023-10-03T07:35:53.419Z,19.80
2023-10-03T07:38:20.003Z,12.63
2023-10-03T07:40:47.920Z,12.00
2023-10-03T07:43:14.618Z,11.43
2023-10-03T07:45:41.257Z,20.52
2023-10-03T07:48:08.862Z,18.88
2023-10-03T07:50:35.854Z,14.07
2023-10-03T07:53:03.419Z,11.90
2023-10-03T07:55:30.088Z,10.85
2023-10-03T07:58:00.405Z,11.38
2023-10-03T08:00:28.920Z,15.55
2023-10-03T08:02:55.658Z,12.98
2023-10-03T08:05:22.569Z,6.30
2023-10-03T08:07:49.129Z,10.57
2023-10-03T08:10:18.521Z,15.18
2023-10-03T08:12:45.308Z,8.65
2023-10-03T08:15:14.581Z,16.80
2023-10-03T08:20:08.820Z,13.75
2023-10-03T08:22:35.388Z,9.25
2023-10-03T08:25:01.989Z,10.30
2023-10-03T08:27:28.550Z,9.73
2023-10-03T08:29:55.222Z,10.90
2023-10-03T08:32:23.298Z,11.55
2023-10-03T08:34:49.962Z,9.40
2023-10-03T08:37:17.309Z,9.93
2023-10-03T08:39:44.299Z,11.65
2023-10-03T08:42:13.401Z,10.32
2023-10-03T08:44:46.529Z,7.68
2023-10-03T08:47:16.024Z,5.85
2023-10-03T08:49:49.191Z,8.98
2023-10-03T08:52:15.810Z,9.15
2023-10-03T08:54:42.576Z,7.68
2023-10-03T08:57:09.273Z,16.38
2023-10-03T08:59:35.979Z,16.30
2023-10-03T09:02:11.030Z,12.27
2023-10-03T09:04:39.515Z,11.55
2023-10-03T09:07:07.615Z,6.93
2023-10-03T09:09:34.178Z,13.05
2023-10-03T09:12:00.831Z,13.35
2023-10-03T09:14:28.729Z,7.13
2023-10-03T09:16:55.415Z,5.93
2023-10-03T09:19:40.966Z,7.53
2023-10-03T09:22:09.903Z,4.32
2023-10-03T09:24:37.245Z,9.32
2023-10-03T09:27:06.637Z,7.45
2023-10-03T09:29:33.956Z,6.18
2023-10-03T09:32:05.358Z,4.43
2023-10-03T09:34:32.320Z,5.97
2023-10-03T09:36:59.614Z,6.65
2023-10-03T09:39:27.527Z,5.28
2023-10-03T09:41:54.868Z,3.20
2023-10-03T09:44:22.977Z,4.22
2023-10-03T09:46:49.624Z,39.40
2023-10-03T09:49:16.198Z,6.68
2023-10-03T09:51:43.713Z,4.03
2023-10-03T09:54:10.638Z,2.35
2023-10-03T09:56:40.532Z,4.20
2023-10-03T09:59:08.199Z,2.85
2023-10-03T10:01:36.272Z,4.18
2023-10-03T10:04:05.125Z,1.00
2023-10-03T10:06:39.435Z,3.13
2023-10-03T10:09:08.306Z,2.97
2023-10-03T10:12:15.786Z,2.70
2023-10-03T10:15:01.195Z,4.43
2023-10-03T10:17:40.982Z,3.53
2023-10-03T10:20:11.779Z,1.45
2023-10-03T10:23:10.041Z,0.55
2023-10-03T10:25:37.794Z,2.30
2023-10-03T10:28:07.401Z,1.25
2023-10-03T10:30:34.402Z,2.58
2023-10-03T10:33:23.360Z,3.03
2023-10-03T10:35:50.836Z,3.58
2023-10-03T10:38:17.563Z,2.05
2023-10-03T10:41:16.541Z,1.98
2023-10-03T10:44:09.029Z,2.15
2023-10-03T10:46:37.479Z,1.27
2023-10-03T10:49:04.332Z,1.45
2023-10-03T10:51:31.033Z,3.75
2023-10-03T10:53:57.718Z,0.50
2023-10-03T10:56:27.315Z,0.40
2023-10-03T10:58:55.432Z,0.40
2023-10-03T11:01:23.509Z,1.33
2023-10-03T11:03:50.717Z,2.72
2023-10-03T11:06:18.203Z,1.83
2023-10-03T11:08:48.742Z,1.60
2023-10-03T11:11:15.624Z,12.68
2023-10-03T11:13:46.779Z,2.40
2023-10-03T11:16:23.222Z,0.88
2023-10-03T11:18:50.934Z,3.13
2023-10-03T11:21:18.346Z,1.55
2023-10-03T11:24:12.976Z,1.20
2023-10-03T11:26:44.359Z,4.85
2023-10-03T11:29:11.238Z,3.53
2023-10-03T11:31:39.518Z,2.45
2023-10-03T11:34:06.135Z,4.53
2023-10-03T11:36:41.000Z,2.17
2023-10-03T11:39:07.669Z,4.07
2023-10-03T11:41:34.657Z,7.22
2023-10-03T11:44:01.745Z,41.53
2023-10-03T11:46:36.841Z,1.45
2023-10-03T11:49:05.521Z,1.23
2023-10-03T11:53:58.949Z,6.07
2023-10-03T11:56:25.579Z,2.45
2023-10-03T11:58:52.206Z,6.68
2023-10-03T12:01:18.847Z,2.03
2023-10-03T12:03:45.596Z,5.35
2023-10-03T12:06:13.719Z,2.40
2023-10-03T12:08:40.357Z,3.38
2023-10-03T12:11:07.009Z,2.70
2023-10-03T12:13:33.867Z,1.90
2023-10-03T12:16:00.461Z,4.88
2023-10-03T12:18:27.207Z,4.78
2023-10-03T12:20:55.056Z,10.27
2023-10-03T12:23:23.036Z,4.88
2023-10-03T12:25:49.571Z,3.03
2023-10-03T12:28:16.193Z,8.27
2023-10-03T12:30:42.832Z,6.82
2023-10-03T12:33:09.564Z,3.33
2023-10-03T12:35:36.343Z,12.38
2023-10-03T12:38:03.154Z,4.32
2023-10-03T12:40:31.280Z,4.82
2023-10-03T12:42:57.898Z,4.77
2023-10-03T12:45:25.526Z,4.32
2023-10-03T12:47:53.141Z,5.38
2023-10-03T12:50:20.981Z,5.60
2023-10-03T12:52:47.762Z,3.45
2023-10-03T12:55:14.366Z,5.65
2023-10-03T12:57:42.422Z,3.33
2023-10-03T13:00:09.650Z,2.30
2023-10-03T13:02:36.754Z,7.15
2023-10-03T13:05:03.581Z,4.68
2023-10-03T13:07:30.151Z,9.30
2023-10-03T13:09:58.144Z,3.05
2023-10-03T13:12:25.870Z,7.30
2023-10-03T13:14:53.862Z,5.18
2023-10-03T13:17:20.494Z,8.57
2023-10-03T13:19:47.141Z,7.97
2023-10-03T13:22:13.729Z,9.63
2023-10-03T13:24:40.308Z,31.33
2023-10-03T13:27:06.943Z,17.15
2023-10-03T13:29:33.639Z,4.88
2023-10-03T13:32:01.563Z,9.55
2023-10-03T13:34:28.132Z,7.63
2023-10-03T13:36:54.756Z,8.13
2023-10-03T13:39:21.672Z,5.00
2023-10-03T13:41:48.329Z,10.63
2023-10-03T13:44:15.038Z,6.30
2023-10-03T13:46:41.738Z,7.57
2023-10-03T13:49:09.683Z,5.20
2023-10-03T13:51:36.532Z,11.20
2023-10-03T13:54:03.551Z,6.45
2023-10-03T13:56:30.616Z,3.97
2023-10-03T13:58:57.160Z,4.43
2023-10-03T14:01:23.791Z,2.65
2023-10-03T14:03:50.449Z,4.45
2023-10-03T14:06:18.472Z,12.45
2023-10-03T14:08:45.121Z,3.60
2023-10-03T14:11:22.048Z,2.33
2023-10-03T14:13:49.823Z,2.40
2023-10-03T14:16:16.687Z,4.45
2023-10-03T14:18:43.423Z,13.80
2023-10-03T14:21:10.142Z,15.77
2023-10-03T14:23:38.271Z,2.78
2023-10-03T14:26:05.213Z,8.07
2023-10-03T14:28:31.963Z,7.68
2023-10-03T14:31:00.915Z,6.18
2023-10-03T14:35:54.068Z,5.78
2023-10-03T14:38:20.993Z,2.97
2023-10-03T14:40:48.900Z,2.92
2023-10-03T14:43:15.457Z,5.82
2023-10-03T14:45:42.107Z,6.28
2023-10-03T14:48:09.920Z,7.35
2023-10-03T14:50:36.591Z,21.38
2023-10-03T14:53:03.427Z,8.27
2023-10-03T14:55:30.042Z,12.13
2023-10-03T14:57:58.050Z,16.17
2023-10-03T15:00:24.682Z,6.38
2023-10-03T15:02:51.452Z,5.57
2023-10-03T15:05:18.393Z,6.22
2023-10-03T15:07:45.029Z,6.80
2023-10-03T15:10:12.160Z,9.00
2023-10-03T15:12:39.111Z,4.00
2023-10-03T15:15:08.387Z,13.48
2023-10-03T15:17:35.087Z,5.55
2023-10-03T15:20:01.860Z,3.15
2023-10-03T15:22:28.488Z,3.28
2023-10-03T15:24:55.071Z,7.38
2023-10-03T15:27:21.744Z,7.88
2023-10-03T15:29:48.378Z,3.97
2023-10-03T15:32:16.340Z,5.22
2023-10-03T15:34:42.916Z,7.88
2023-10-03T15:37:10.356Z,4.45
2023-10-03T15:39:37.274Z,5.43
2023-10-03T15:42:04.340Z,13.60
2023-10-03T15:44:31.110Z,3.90
2023-10-03T15:46:57.817Z,6.43
2023-10-03T15:49:25.890Z,4.93
2023-10-03T15:51:52.680Z,2.53
2023-10-03T15:54:19.434Z,4.80
2023-10-03T15:56:46.169Z,6.55
2023-10-03T15:59:12.801Z,8.27
2023-10-03T16:01:39.414Z,4.25
2023-10-03T16:04:06.445Z,7.00
2023-10-03T16:06:34.624Z,5.82
2023-10-03T16:09:01.345Z,5.03
2023-10-03T16:11:28.179Z,5.85
2023-10-03T16:13:54.744Z,2.20
2023-10-03T16:16:21.287Z,4.70
2023-10-03T16:18:47.862Z,6.38
2023-10-03T16:21:14.522Z,8.95
2023-10-03T16:23:42.508Z,6.00
2023-10-03T16:26:09.133Z,2.97
2023-10-03T16:28:35.683Z,3.90
2023-10-03T16:31:02.288Z,12.30
2023-10-03T16:33:29.009Z,6.35
2023-10-03T16:35:56.321Z,4.05
2023-10-03T16:38:22.951Z,6.72
2023-10-03T16:40:50.874Z,8.43
2023-10-03T16:43:17.481Z,6.45
2023-10-03T16:45:44.149Z,10.20
2023-10-03T16:48:10.838Z,8.48
2023-10-03T16:50:37.484Z,5.85
2023-10-03T16:53:04.513Z,12.05
2023-10-03T16:55:31.261Z,8.38
2023-10-03T16:58:03.179Z,6.75
2023-10-03T17:00:30.743Z,12.18
2023-10-03T17:02:57.384Z,4.78
2023-10-03T17:05:23.980Z,10.02
2023-10-03T17:07:50.552Z,11.15
2023-10-03T17:10:17.470Z,6.32
2023-10-03T17:12:44.216Z,5.88
2023-10-03T17:15:12.874Z,7.38
2023-10-03T17:17:39.814Z,10.85
2023-10-03T17:20:07.837Z,5.22
2023-10-03T17:22:34.426Z,11.65
2023-10-03T17:25:00.992Z,6.65
2023-10-03T17:27:27.742Z,9.45
2023-10-03T17:29:54.338Z,7.05
2023-10-03T17:32:22.271Z,6.68
2023-10-03T17:34:48.885Z,12.50
2023-10-03T17:37:15.467Z,7.38
2023-10-03T17:39:42.054Z,7.30
2023-10-03T17:42:08.638Z,5.00
2023-10-03T17:44:35.310Z,12.40
2023-10-03T17:47:02.170Z,6.32
2023-10-03T17:49:31.266Z,5.00
2023-10-03T17:54:33.277Z,6.90
2023-10-03T17:57:01.244Z,5.50
2023-10-03T17:59:27.884Z,4.53
2023-10-03T18:01:54.632Z,5.63
2023-10-03T18:04:21.339Z,4.45
2023-10-03T18:06:49.321Z,2.85
2023-10-03T18:09:16.295Z,5.43
2023-10-03T18:11:43.107Z,6.30
2023-10-03T18:14:09.641Z,4.93
2023-10-03T18:16:36.619Z,5.07
2023-10-03T18:19:03.642Z,7.85
2023-10-03T18:21:30.570Z,7.05
2023-10-03T18:23:58.484Z,6.53
2023-10-03T18:26:25.207Z,6.53
2023-10-03T18:28:51.893Z,10.93
2023-10-03T18:31:18.544Z,3.95
2023-10-03T18:33:45.279Z,7.60
2023-10-03T18:36:17.923Z,4.57
2023-10-03T18:38:44.695Z,4.90
2023-10-03T18:41:12.670Z,10.10
2023-10-03T18:43:39.337Z,5.97
2023-10-03T18:46:07.375Z,4.80
2023-10-03T18:48:34.182Z,6.53
2023-10-03T18:51:02.149Z,10.98
2023-10-03T18:53:28.825Z,18.08
2023-10-03T18:55:55.478Z,7.70
2023-10-03T18:58:23.407Z,7.70
2023-10-03T19:00:50.001Z,8.25
2023-10-03T19:03:16.636Z,4.82
2023-10-03T19:05:43.309Z,5.45
2023-10-03T19:08:09.891Z,3.55
2023-10-03T19:10:36.540Z,4.28
2023-10-03T19:13:03.342Z,3.85
2023-10-03T19:15:31.245Z,7.22
2023-10-03T19:17:58.139Z,4.80
2023-10-03T19:20:24.922Z,4.78
2023-10-03T19:22:51.468Z,4.63
2023-10-03T19:25:18.016Z,2.88
2023-10-03T19:27:44.661Z,9.48
2023-10-03T19:30:12.438Z,4.60
2023-10-03T19:32:40.982Z,10.38
2023-10-03T19:35:08.613Z,9.35
2023-10-03T19:37:35.250Z,13.63
2023-10-03T19:40:01.806Z,4.30
2023-10-03T19:42:28.511Z,4.07
2023-10-03T19:44:55.180Z,3.15
2023-10-03T19:47:21.791Z,4.72
2023-10-03T19:49:49.693Z,4.28
2023-10-03T19:52:16.306Z,3.13
2023-10-03T19:54:42.879Z,3.15
2023-10-03T19:57:09.455Z,5.53
2023-10-03T19:59:36.036Z,3.30
2023-10-03T20:02:02.727Z,8.95
2023-10-03T20:04:29.372Z,1.92
2023-10-03T20:06:57.298Z,4.90
2023-10-03T20:09:23.937Z,8.20
2023-10-03T20:11:50.559Z,12.73
2023-10-03T20:14:17.129Z,7.90
2023-10-03T20:16:43.742Z,8.73
2023-10-03T20:19:10.308Z,7.82
2023-10-03T20:21:37.170Z,5.07
2023-10-03T20:24:05.810Z,12.77
2023-10-03T20:26:32.399Z,5.93
2023-10-03T20:28:59.142Z,6.60
2023-10-03T20:31:25.743Z,9.85
2023-10-03T20:33:52.763Z,8.52
2023-10-03T20:36:19.371Z,7.07
2023-10-03T20:38:45.938Z,4.57
2023-10-03T20:41:13.867Z,7.32
2023-10-03T20:43:40.556Z,4.32
2023-10-03T20:46:11.004Z,6.03
2023-10-03T20:48:37.954Z,4.32
2023-10-03T20:51:04.560Z,5.63
2023-10-03T20:53:31.173Z,10.77
2023-10-03T20:55:57.728Z,5.53
2023-10-03T20:58:25.619Z,9.73
2023-10-03T21:00:52.184Z,7.50
2023-10-03T21:03:18.846Z,4.53
2023-10-03T21:05:45.521Z,4.35
2023-10-03T21:08:12.059Z,2.58
2023-10-03T21:10:38.646Z,4.72
2023-10-03T21:13:05.229Z,10.30
2023-10-03T21:15:33.263Z,10.93
2023-10-03T21:17:59.901Z,9.90
2023-10-03T21:20:26.496Z,3.90
2023-10-03T21:22:53.145Z,8.80
2023-10-03T21:25:19.933Z,4.72
2023-10-03T21:27:46.473Z,6.22
2023-10-03T21:30:13.786Z,5.15
2023-10-03T21:32:42.060Z,7.03
2023-10-03T21:35:09.314Z,8.05
2023-10-03T21:37:36.050Z,5.68
2023-10-03T21:40:02.836Z,15.30
2023-10-03T21:42:29.646Z,2.97
2023-10-03T21:44:56.437Z,8.73
2023-10-03T21:47:23.070Z,8.38
2023-10-03T21:49:51.014Z,2.20
2023-10-03T21:52:17.674Z,22.95
2023-10-03T21:54:44.219Z,3.97
2023-10-03T21:57:10.818Z,2.92
2023-10-03T21:59:37.405Z,6.57
2023-10-03T22:02:03.935Z,17.35
2023-10-03T22:04:30.509Z,4.00
2023-10-03T22:06:58.408Z,6.38
2023-10-03T22:09:25.024Z,7.55
2023-10-03T22:11:51.902Z,4.35
2023-10-03T22:14:18.608Z,6.25
2023-10-03T22:16:45.306Z,7.60
2023-10-03T22:19:12.339Z,7.03
2023-10-03T22:21:38.948Z,2.05
2023-10-03T22:24:07.283Z,3.38
2023-10-03T22:26:33.929Z,4.88
2023-10-03T22:29:00.490Z,7.85
2023-10-03T22:31:27.125Z,3.60
2023-10-03T22:33:53.770Z,9.77
2023-10-03T22:36:22.397Z,2.40
2023-10-03T22:38:50.199Z,3.13
2023-10-03T22:41:18.086Z,3.25
2023-10-03T22:43:44.644Z,3.75
2023-10-03T22:46:11.262Z,6.65
2023-10-03T22:48:39.607Z,3.67
2023-10-03T22:51:06.356Z,4.95
2023-10-03T22:53:33.200Z,2.45
2023-10-03T22:55:59.757Z,7.05
2023-10-03T22:58:27.705Z,2.15
2023-10-03T23:00:54.911Z,4.32
2023-10-03T23:03:21.895Z,4.72
2023-10-03T23:05:48.565Z,4.10
2023-10-03T23:08:15.223Z,6.85
2023-10-03T23:10:41.790Z,2.42
2023-10-03T23:13:08.398Z,10.43
2023-10-03T23:15:40.238Z,7.97
2023-10-03T23:18:07.398Z,4.00
2023-10-03T23:20:34.016Z,4.65
2023-10-03T23:23:00.594Z,3.67
2023-10-03T23:25:27.398Z,8.73
2023-10-03T23:27:53.958Z,8.70
2023-10-03T23:30:20.544Z,3.25
2023-10-03T23:32:48.527Z,4.15
2023-10-03T23:35:15.234Z,7.45
2023-10-03T23:37:41.863Z,6.00
2023-10-03T23:40:09.213Z,4.22
2023-10-03T23:42:35.776Z,3.70
2023-10-03T23:45:02.418Z,20.20
2023-10-03T23:47:29.027Z,5.75
2023-10-03T23:49:56.938Z,7.57
2023-10-03T23:52:23.493Z,3.65
2023-10-03T23:54:50.036Z,6.03
2023-10-03T23:57:16.653Z,6.85
2023-10-03T23:59:43.489Z,16.55
